Cornwall Center, Pennsylvania
Current Conditions -  °F | °C
As of 6:53 PM on Wednesday 22 Oct 2014 (Local Time) from KLNS Reporting Station
Overcast Overcast  
Wind Chill: 53°   Ceiling: 2400
Heat Index: 53°   Visibility: 10mi
Dew Point: 45°   Wind: 9mph
Humidity: 74%   Direction: 330°NNW
Pressure: 29.93"   Gusts: 23mph
Location:  40.2693°N, 76.4009°W
Report Text: KLNS 222253Z 33008G20KT 10SM OVC024 12/07 A2993 RMK AO2 PK WND 36027/2155 SLP134 T01170072
Loading
Personal Weather Stations






























Interactive Weather Map
Tropical Storm Tracking
New forecast layout! Learn more

10-Day Weather Forecast

Advertisements
Track Severe Weather on mobile